Time;durP1;ratioP1;P1;durP2;ratioP2;P2;SDS_P1;SDS_P2;PMS_P1;PMS_P2;Temp;Humidity;BMP_temperature;BMP_pressure;BME280_temperature;BME280_humidity;BME280_pressure;Samples;Min_cycle;Max_cycle;Signal;HPM_P1;HPM_P2
2022/05/30 00:00:23;;;;;;;10.20;2.95;;;;;;;;;;5023290;28;20089;-49
2022/05/30 00:02:50;;;;;;;14.33;3.70;;;;;;;;;;5020353;28;20474;-58
2022/05/30 00:05:24;;;;;;;11.50;3.10;;;;;;;;;;5025760;28;20335;-57
2022/05/30 00:07:50;;;;;;;9.45;3.25;;;;;;;;;;5022609;28;20156;-58
2022/05/30 00:10:17;;;;;;;8.18;2.80;;;;;;;;;;5022078;28;20073;-55
2022/05/30 00:12:51;;;;;;;9.68;3.40;;;;;;;;;;5019746;28;20169;-55
2022/05/30 00:15:18;;;;;;;10.45;3.55;;;;;;;;;;5023863;28;20080;-58
2022/05/30 00:17:45;;;;;;;;;;;;;;;;;;5020429;28;20508;-51
2022/05/30 00:20:18;;;;;;;6.93;3.17;;;;;;;;;;5021458;28;19921;-56
2022/05/30 00:22:47;;;;;;;8.18;3.13;;;;;;;;;;5022368;28;20497;-52
2022/05/30 00:25:14;;;;;;;9.70;3.58;;;;;;;;;;5022229;28;20054;-55
2022/05/30 00:27:47;;;;;;;10.15;3.97;;;;;;;;;;5024270;28;20080;-56
2022/05/30 00:30:17;;;;;;;12.60;3.50;;;;;;;;;;5026409;28;20057;-54
2022/05/30 00:32:44;;;;;;;14.13;3.55;;;;;;;;;;5020093;28;20104;-57
2022/05/30 00:35:17;;;;;;;12.68;3.90;;;;;;;;;;5021747;28;20151;-56
2022/05/30 00:37:44;;;;;;;9.02;3.33;;;;;;;;;;5022419;28;20163;-51
2022/05/30 00:40:10;;;;;;;11.07;2.97;;;;;;;;;;5022424;28;20077;-52
2022/05/30 00:42:49;;;;;;;12.55;3.95;;;;;;;;;;5020268;28;20148;-57
2022/05/30 00:45:23;;;;;;;11.50;3.70;;;;;;;;;;5023730;28;20502;-58
2022/05/30 00:47:56;;;;;;;14.85;3.90;;;;;;;;;;5020673;28;20061;-57
2022/05/30 00:50:23;;;;;;;16.48;3.30;;;;;;;;;;5025419;28;20081;-57
2022/05/30 00:52:49;;;;;;;11.00;4.32;;;;;;;;;;5020783;28;20046;-57
2022/05/30 00:55:22;;;;;;;12.80;4.05;;;;;;;;;;5024456;28;20077;-57
2022/05/30 00:57:49;;;;;;;13.60;4.47;;;;;;;;;;5020249;28;20108;-48
2022/05/30 01:00:17;;;;;;;10.80;4.13;;;;;;;;;;5023929;28;20140;-48
2022/05/30 01:08:29;;;;;;;12.40;4.35;;;;;;;;;;5025089;28;20100;-49
2022/05/30 01:10:56;;;;;;;12.80;4.32;;;;;;;;;;5024457;28;20077;-50
2022/05/30 01:13:24;;;;;;;15.50;4.20;;;;;;;;;;5025301;28;20076;-51
2022/05/30 01:15:57;;;;;;;12.50;4.63;;;;;;;;;;5026224;28;20058;-54
2022/05/30 01:18:39;;;;;;;13.80;4.70;;;;;;;;;;5022274;28;20098;-48
2022/05/30 01:21:15;;;;;;;10.88;4.28;;;;;;;;;;5022481;28;20081;-57
2022/05/30 01:23:54;;;;;;;10.30;4.13;;;;;;;;;;5022601;28;20057;-55
2022/05/30 01:26:36;;;;;;;12.32;4.78;;;;;;;;;;5023148;28;20089;-55
2022/05/30 01:29:09;;;;;;;14.95;4.88;;;;;;;;;;5018960;28;20129;-56
2022/05/30 01:31:42;;;;;;;13.48;4.60;;;;;;;;;;5025551;28;20088;-56
2022/05/30 01:34:09;;;;;;;13.80;5.30;;;;;;;;;;5021563;28;20068;-57
2022/05/30 01:36:36;;;;;;;12.25;5.70;;;;;;;;;;5018100;28;20135;-54
2022/05/30 01:39:10;;;;;;;19.27;5.57;;;;;;;;;;5023985;28;20148;-47
2022/05/30 01:41:50;;;;;;;14.82;5.20;;;;;;;;;;5018847;28;20057;-50
2022/05/30 01:44:23;;;;;;;15.80;5.10;;;;;;;;;;4999159;28;20575;-51
2022/05/30 01:46:49;;;;;;;14.07;5.15;;;;;;;;;;5001256;28;20088;-51
2022/05/30 01:49:16;;;;;;;12.02;4.78;;;;;;;;;;5002314;28;20084;-51
2022/05/30 01:51:53;;;;;;;12.57;4.88;;;;;;;;;;5003816;28;20120;-52
2022/05/30 01:54:20;;;;;;;18.23;4.82;;;;;;;;;;4999054;28;20061;-51
2022/05/30 01:56:48;;;;;;;12.18;5.80;;;;;;;;;;5002945;28;20077;-58
2022/05/30 01:59:21;;;;;;;13.48;4.90;;;;;;;;;;4985368;28;20085;-56
2022/05/30 02:01:48;;;;;;;13.82;5.40;;;;;;;;;;4999834;28;20529;-57
2022/05/30 02:04:15;;;;;;;13.80;5.40;;;;;;;;;;5002274;28;20065;-58
2022/05/30 02:06:48;;;;;;;14.23;4.38;;;;;;;;;;5001935;28;20500;-58
2022/05/30 02:09:15;;;;;;;15.77;5.07;;;;;;;;;;5001193;28;20085;-56
2022/05/30 02:11:41;;;;;;;13.88;4.35;;;;;;;;;;5001521;28;20085;-54
2022/05/30 02:14:14;;;;;;;13.52;4.90;;;;;;;;;;4999454;28;20089;-52
2022/05/30 02:19:35;;;;;;;10.68;4.10;;;;;;;;;;5002102;28;20081;-56
2022/05/30 02:22:01;;;;;;;8.90;4.53;;;;;;;;;;5003599;28;20081;-56
2022/05/30 02:24:28;;;;;;;9.63;4.37;;;;;;;;;;5000744;28;20406;-56
2022/05/30 02:27:02;;;;;;;12.13;4.35;;;;;;;;;;5001496;28;20513;-57
2022/05/30 02:29:28;;;;;;;13.48;5.28;;;;;;;;;;5002796;28;20137;-55
2022/05/30 02:31:54;;;;;;;12.75;4.60;;;;;;;;;;5004279;28;20210;-51
2022/05/30 02:37:13;;;;;;;10.93;4.85;;;;;;;;;;5000884;28;20055;-48
2022/05/30 02:39:46;;;;;;;11.30;4.82;;;;;;;;;;5007121;28;20105;-52
2022/05/30 02:42:27;;;;;;;13.98;5.10;;;;;;;;;;5007939;28;20057;-50
2022/05/30 02:45:00;;;;;;;13.90;5.00;;;;;;;;;;5025126;28;20119;-48
2022/05/30 02:47:27;;;;;;;12.38;5.22;;;;;;;;;;5028496;28;20053;-52
2022/05/30 02:49:54;;;;;;;16.23;5.55;;;;;;;;;;5024759;28;20131;-51
2022/05/30 02:52:27;;;;;;;13.52;5.18;;;;;;;;;;5027346;28;20465;-49
2022/05/30 02:54:54;;;;;;;13.85;5.03;;;;;;;;;;5023345;28;20081;-53
2022/05/30 02:57:20;;;;;;;14.15;5.65;;;;;;;;;;5026392;28;20092;-54
2022/05/30 02:59:53;;;;;;;17.73;4.97;;;;;;;;;;5021687;28;20053;-46
2022/05/30 03:02:20;;;;;;;13.18;4.95;;;;;;;;;;5026430;28;20528;-52
2022/05/30 03:04:46;;;;;;;13.98;5.30;;;;;;;;;;5024039;28;20115;-52
2022/05/30 03:07:19;;;;;;;13.55;4.90;;;;;;;;;;5024213;28;20544;-49
2022/05/30 03:09:46;;;;;;;12.18;4.70;;;;;;;;;;5020952;28;20564;-54
2022/05/30 03:12:12;;;;;;;14.65;4.50;;;;;;;;;;5025009;28;20520;-51
2022/05/30 03:14:46;;;;;;;10.02;4.60;;;;;;;;;;5027178;28;20131;-50
2022/05/30 03:17:12;;;;;;;8.50;4.17;;;;;;;;;;5027980;28;20089;-50
2022/05/30 03:19:38;;;;;;;8.15;4.40;;;;;;;;;;5023622;28;20421;-52
2022/05/30 03:22:11;;;;;;;13.13;4.30;;;;;;;;;;5025495;28;20093;-53
2022/05/30 03:24:37;;;;;;;11.32;4.78;;;;;;;;;;5023182;28;20173;-49
2022/05/30 03:27:04;;;;;;;8.25;3.88;;;;;;;;;;5024060;28;20140;-52
2022/05/30 03:29:37;;;;;;;6.68;3.90;;;;;;;;;;5027500;28;20100;-57
2022/05/30 03:32:04;;;;;;;16.23;4.45;;;;;;;;;;5025376;28;20094;-45
2022/05/30 03:34:30;;;;;;;13.32;4.55;;;;;;;;;;5020791;28;20112;-44
2022/05/30 03:37:03;;;;;;;9.85;4.35;;;;;;;;;;5026946;28;20045;-50
2022/05/30 03:39:30;;;;;;;10.95;3.97;;;;;;;;;;5022764;28;20477;-52
2022/05/30 03:41:57;;;;;;;7.82;4.13;;;;;;;;;;5021681;28;20425;-45
2022/05/30 03:44:37;;;;;;;14.20;5.13;;;;;;;;;;5023432;28;20127;-49
2022/05/30 03:47:03;;;;;;;11.95;4.50;;;;;;;;;;5022795;28;20183;-53
2022/05/30 03:49:30;;;;;;;9.40;4.70;;;;;;;;;;5023060;28;20120;-54
2022/05/30 03:52:03;;;;;;;10.88;4.53;;;;;;;;;;5024238;28;20081;-57
2022/05/30 03:54:30;;;;;;;12.73;4.07;;;;;;;;;;5024113;28;20566;-56
2022/05/30 03:56:56;;;;;;;16.00;3.75;;;;;;;;;;5027264;28;20089;-57
2022/05/30 03:59:30;;;;;;;11.00;3.55;;;;;;;;;;5023721;28;20103;-56
2022/05/30 04:01:59;;;;;;;11.63;3.58;;;;;;;;;;5026418;28;20049;-56
2022/05/30 04:04:26;;;;;;;9.75;3.50;;;;;;;;;;5024041;28;20057;-56
2022/05/30 04:07:00;;;;;;;16.52;3.03;;;;;;;;;;5017693;28;20107;-52
2022/05/30 04:09:26;;;;;;;12.43;2.80;;;;;;;;;;5023770;28;20612;-57
2022/05/30 04:11:53;;;;;;;9.75;2.90;;;;;;;;;;5022431;28;20093;-55
2022/05/30 04:14:26;;;;;;;10.32;2.97;;;;;;;;;;5024440;28;20579;-58
2022/05/30 04:16:53;;;;;;;11.82;3.17;;;;;;;;;;5023572;28;20093;-57
2022/05/30 04:19:19;;;;;;;15.95;3.22;;;;;;;;;;5025491;28;20079;-57
2022/05/30 04:21:52;;;;;;;12.57;2.75;;;;;;;;;;5023679;28;20575;-57
2022/05/30 04:24:19;;;;;;;9.90;2.70;;;;;;;;;;5022133;28;20100;-56
2022/05/30 04:26:45;;;;;;;11.43;2.83;;;;;;;;;;5022864;28;20049;-59
2022/05/30 04:29:18;;;;;;;13.85;2.45;;;;;;;;;;5023357;28;20579;-53
2022/05/30 04:31:45;;;;;;;18.50;3.27;;;;;;;;;;5021942;28;20092;-53
2022/05/30 04:34:11;;;;;;;14.75;3.28;;;;;;;;;;5020909;28;20140;-51
2022/05/30 04:36:44;;;;;;;10.02;2.45;;;;;;;;;;5024195;28;20081;-51
2022/05/30 04:39:11;;;;;;;14.05;2.92;;;;;;;;;;5023200;28;20537;-54
2022/05/30 04:41:37;;;;;;;14.38;2.88;;;;;;;;;;5023815;28;20417;-50
2022/05/30 04:44:17;;;;;;;13.75;2.90;;;;;;;;;;5025286;28;20470;-55
2022/05/30 04:46:49;;;;;;;12.10;2.55;;;;;;;;;;5019484;28;20124;-58
2022/05/30 04:49:23;;;;;;;14.48;3.20;;;;;;;;;;5018472;28;20540;-50
2022/05/30 04:51:49;;;;;;;14.88;3.15;;;;;;;;;;5020277;28;20127;-50
2022/05/30 04:54:16;;;;;;;11.55;2.95;;;;;;;;;;5024188;28;20149;-51
2022/05/30 04:56:49;;;;;;;14.70;3.10;;;;;;;;;;5023671;28;20131;-52
2022/05/30 04:59:16;;;;;;;14.35;2.78;;;;;;;;;;5019080;28;20061;-45
2022/05/30 05:01:42;;;;;;;13.07;2.90;;;;;;;;;;5022758;28;20401;-48
2022/05/30 05:04:16;;;;;;;15.68;3.20;;;;;;;;;;5021281;28;20119;-51
2022/05/30 05:06:45;;;;;;;13.70;2.50;;;;;;;;;;5022932;28;20097;-55
2022/05/30 05:09:17;;;;;;;13.00;2.85;;;;;;;;;;5025640;28;20069;-54
2022/05/30 05:11:51;;;;;;;17.13;2.55;;;;;;;;;;5020538;28;20096;-56
2022/05/30 05:14:17;;;;;;;14.32;3.00;;;;;;;;;;5017984;28;20133;-52
2022/05/30 05:16:44;;;;;;;12.93;2.88;;;;;;;;;;5021102;28;20054;-55
2022/05/30 05:19:17;;;;;;;13.45;2.53;;;;;;;;;;5019989;28;20053;-55
2022/05/30 05:21:45;;;;;;;15.23;3.13;;;;;;;;;;5020687;28;20147;-55
2022/05/30 05:24:12;;;;;;;11.10;2.83;;;;;;;;;;5020353;28;20077;-57
2022/05/30 05:26:47;;;;;;;11.48;2.88;;;;;;;;;;5021413;28;20517;-52
2022/05/30 05:29:14;;;;;;;20.02;3.15;;;;;;;;;;5024118;28;20049;-51
2022/05/30 05:31:41;;;;;;;;;;;;;;;;;;5023784;28;20061;-50
2022/05/30 05:34:17;;;;;;;16.13;2.50;;;;;;;;;;5024243;28;19983;-53
2022/05/30 05:36:46;;;;;;;15.43;2.78;;;;;;;;;;5024082;28;20050;-52
2022/05/30 05:39:14;;;;;;;11.57;2.58;;;;;;;;;;5019179;28;20053;-53
2022/05/30 05:41:47;;;;;;;8.57;2.45;;;;;;;;;;5021236;28;20578;-53
2022/05/30 05:44:21;;;;;;;14.13;2.80;;;;;;;;;;5018352;28;20085;-53
2022/05/30 05:46:57;;;;;;;12.25;3.00;;;;;;;;;;5020420;28;20054;-51
2022/05/30 05:49:24;;;;;;;13.52;2.70;;;;;;;;;;5021166;28;20054;-50
2022/05/30 05:51:51;;;;;;;12.05;3.05;;;;;;;;;;5023855;28;20085;-45
2022/05/30 05:54:25;;;;;;;13.23;3.03;;;;;;;;;;5023548;28;20088;-46
2022/05/30 05:56:52;;;;;;;;;;;;;;;;;;5022012;28;20101;-48
2022/05/30 05:59:18;;;;;;;14.50;3.15;;;;;;;;;;5022193;28;20373;-51
2022/05/30 06:01:51;;;;;;;12.32;2.80;;;;;;;;;;5024545;28;20096;-58
2022/05/30 06:04:17;;;;;;;12.75;2.88;;;;;;;;;;5024751;28;20089;-49
2022/05/30 06:06:44;;;;;;;15.23;2.78;;;;;;;;;;5023453;28;20104;-54
2022/05/30 06:09:17;;;;;;;13.02;2.90;;;;;;;;;;5022636;28;20085;-53
2022/05/30 06:11:43;;;;;;;14.77;2.67;;;;;;;;;;5002946;28;20093;-55
2022/05/30 06:14:10;;;;;;;22.38;3.38;;;;;;;;;;5022580;28;20080;-54
2022/05/30 06:16:44;;;;;;;13.95;2.78;;;;;;;;;;5020032;28;20104;-52
2022/05/30 06:19:11;;;;;;;14.48;3.35;;;;;;;;;;5023759;28;20091;-54
2022/05/30 06:21:38;;;;;;;12.98;3.55;;;;;;;;;;5022960;28;20089;-52
2022/05/30 06:24:12;;;;;;;13.30;2.90;;;;;;;;;;5022946;28;20092;-57
2022/05/30 06:26:39;;;;;;;13.63;3.22;;;;;;;;;;5019724;28;20066;-57
2022/05/30 06:29:05;;;;;;;14.32;2.85;;;;;;;;;;5022204;28;20504;-57
2022/05/30 06:31:38;;;;;;;11.52;2.72;;;;;;;;;;5019665;28;20084;-57
2022/05/30 06:34:05;;;;;;;13.25;3.38;;;;;;;;;;5021199;28;20089;-57
2022/05/30 06:36:31;;;;;;;20.80;3.15;;;;;;;;;;5019597;28;20081;-57
2022/05/30 06:39:10;;;;;;;15.93;3.10;;;;;;;;;;5020296;28;20061;-47
2022/05/30 06:41:36;;;;;;;10.45;2.70;;;;;;;;;;5022558;28;20105;-54
2022/05/30 06:44:06;;;;;;;15.55;2.83;;;;;;;;;;5019314;28;20066;-58
2022/05/30 06:46:49;;;;;;;15.05;2.90;;;;;;;;;;5023546;28;20489;-59
2022/05/30 06:49:23;;;;;;;10.30;2.65;;;;;;;;;;5019338;28;20053;-58
2022/05/30 06:51:56;;;;;;;16.80;3.20;;;;;;;;;;5009203;28;20054;-57
2022/05/30 06:54:23;;;;;;;10.80;2.78;;;;;;;;;;5019784;28;20101;-57
2022/05/30 06:59:41;;;;;;;11.00;2.85;;;;;;;;;;5018438;28;20057;-55
2022/05/30 07:02:15;;;;;;;17.83;3.13;;;;;;;;;;5020064;28;20065;-53
2022/05/30 07:04:49;;;;;;;11.27;3.15;;;;;;;;;;5023254;28;20087;-51
2022/05/30 07:07:15;;;;;;;12.13;3.17;;;;;;;;;;5020009;28;20119;-50
2022/05/30 07:09:42;;;;;;;17.23;2.70;;;;;;;;;;5022969;28;20132;-49
2022/05/30 07:12:17;;;;;;;14.88;2.85;;;;;;;;;;5023551;28;20108;-47
2022/05/30 07:14:43;;;;;;;10.40;2.40;;;;;;;;;;5025469;28;20108;-49
2022/05/30 07:17:10;;;;;;;19.45;3.33;;;;;;;;;;5023012;28;20477;-59
2022/05/30 07:19:43;;;;;;;16.80;3.22;;;;;;;;;;5017610;28;20104;-53
2022/05/30 07:22:10;;;;;;;16.40;3.22;;;;;;;;;;5021158;28;20054;-54
2022/05/30 07:24:37;;;;;;;10.20;2.90;;;;;;;;;;5020568;28;20089;-49
2022/05/30 07:27:10;;;;;;;16.35;3.13;;;;;;;;;;5020081;28;20092;-53
2022/05/30 07:29:37;;;;;;;11.82;2.83;;;;;;;;;;5026684;28;20084;-49
2022/05/30 07:32:03;;;;;;;10.90;3.45;;;;;;;;;;5022440;28;20096;-52
2022/05/30 07:34:37;;;;;;;13.93;2.88;;;;;;;;;;5027807;28;20073;-50
2022/05/30 07:37:04;;;;;;;14.60;3.03;;;;;;;;;;5025620;28;20073;-52
2022/05/30 07:39:30;;;;;;;18.83;3.37;;;;;;;;;;5027416;28;20137;-52
2022/05/30 07:42:04;;;;;;;9.50;2.60;;;;;;;;;;5024309;28;20536;-51
2022/05/30 07:44:38;;;;;;;12.63;2.33;;;;;;;;;;5023763;28;20050;-53
2022/05/30 07:47:22;;;;;;;16.45;2.78;;;;;;;;;;5024200;28;20108;-53
2022/05/30 07:49:48;;;;;;;10.40;2.65;;;;;;;;;;5022407;28;20058;-47
2022/05/30 07:52:23;;;;;;;11.57;2.35;;;;;;;;;;5026097;28;20088;-47
2022/05/30 07:54:49;;;;;;;12.07;2.53;;;;;;;;;;5023745;28;20085;-52
2022/05/30 07:57:16;;;;;;;15.00;3.00;;;;;;;;;;5024106;28;20053;-52
2022/05/30 07:59:49;;;;;;;12.80;2.88;;;;;;;;;;5023337;28;20045;-56
2022/05/30 08:02:16;;;;;;;8.88;2.58;;;;;;;;;;5022020;28;20085;-56
2022/05/30 08:04:43;;;;;;;9.70;2.60;;;;;;;;;;5023425;28;20045;-56
2022/05/30 08:07:15;;;;;;;10.77;2.67;;;;;;;;;;5025846;28;20100;-52
2022/05/30 08:09:42;;;;;;;12.15;2.80;;;;;;;;;;5023400;28;20057;-57
2022/05/30 08:12:08;;;;;;;11.43;2.72;;;;;;;;;;5025214;28;20050;-55
2022/05/30 08:14:41;;;;;;;14.10;2.78;;;;;;;;;;5023380;28;20085;-51
2022/05/30 08:17:08;;;;;;;11.73;2.70;;;;;;;;;;5022379;28;20358;-50
2022/05/30 08:19:35;;;;;;;14.50;3.13;;;;;;;;;;5025101;28;20057;-48
2022/05/30 08:22:25;;;;;;;13.23;2.70;;;;;;;;;;5021220;28;20637;-48
2022/05/30 08:24:52;;;;;;;14.50;2.60;;;;;;;;;;5024868;28;20057;-52
2022/05/30 08:27:25;;;;;;;13.18;2.53;;;;;;;;;;5024206;28;20057;-52
2022/05/30 08:29:52;;;;;;;9.48;2.72;;;;;;;;;;5022603;28;20081;-48
2022/05/30 08:32:18;;;;;;;12.98;2.63;;;;;;;;;;5021715;28;20100;-53
2022/05/30 08:34:51;;;;;;;10.65;2.50;;;;;;;;;;5024377;28;20049;-59
2022/05/30 08:37:18;;;;;;;12.80;2.75;;;;;;;;;;5023366;28;20084;-56
2022/05/30 08:42:43;;;;;;;13.80;3.05;;;;;;;;;;5020900;28;20115;-56
2022/05/30 08:45:17;;;;;;;12.32;2.88;;;;;;;;;;5020781;28;20057;-56
2022/05/30 08:47:55;;;;;;;8.93;2.70;;;;;;;;;;5021767;28;20058;-55
2022/05/30 08:50:37;;;;;;;11.73;2.63;;;;;;;;;;5021023;28;20088;-55
2022/05/30 08:53:30;;;;;;;8.38;2.38;;;;;;;;;;5024707;28;20092;-57
2022/05/30 08:56:12;;;;;;;15.25;3.08;;;;;;;;;;5022209;28;20204;-53
2022/05/30 08:59:12;;;;;;;11.75;3.13;;;;;;;;;;5020627;28;20049;-49
2022/05/30 09:01:38;;;;;;;12.18;2.88;;;;;;;;;;5023085;28;20501;-54
2022/05/30 09:04:30;;;;;;;9.43;2.50;;;;;;;;;;5019103;28;20069;-52
2022/05/30 09:07:14;;;;;;;9.68;2.78;;;;;;;;;;5020414;28;20111;-47
2022/05/30 09:09:50;;;;;;;5.57;2.00;;;;;;;;;;5020560;28;20057;-53
2022/05/30 09:12:26;;;;;;;11.05;2.92;;;;;;;;;;5022697;28;20149;-55
2022/05/30 09:15:05;;;;;;;8.13;2.35;;;;;;;;;;5027020;28;20086;-59
2022/05/30 09:17:41;;;;;;;10.68;2.25;;;;;;;;;;5022202;28;20076;-59
2022/05/30 09:20:22;;;;;;;7.40;2.38;;;;;;;;;;5027241;28;20112;-60
2022/05/30 09:22:49;;;;;;;8.25;2.25;;;;;;;;;;5024351;28;20045;-59
2022/05/30 09:28:22;;;;;;;10.65;2.47;;;;;;;;;;5021675;28;20061;-59
2022/05/30 09:31:04;;;;;;;10.85;3.05;;;;;;;;;;5016208;28;20058;-59
2022/05/30 09:33:38;;;;;;;6.45;2.00;;;;;;;;;;5025821;28;20053;-53
2022/05/30 09:36:11;;;;;;;11.45;2.35;;;;;;;;;;5021976;28;20505;-52
2022/05/30 09:39:01;;;;;;;13.07;2.47;;;;;;;;;;5025234;28;20084;-54
2022/05/30 09:41:37;;;;;;;8.20;2.20;;;;;;;;;;5016021;28;20080;-53
2022/05/30 09:44:22;;;;;;;6.68;2.47;;;;;;;;;;5023339;28;20049;-54
2022/05/30 09:46:58;;;;;;;7.90;2.40;;;;;;;;;;5020040;28;20085;-53
2022/05/30 09:49:44;;;;;;;6.28;2.55;;;;;;;;;;5021317;28;20049;-58
2022/05/30 09:52:32;;;;;;;6.60;2.58;;;;;;;;;;5020470;28;20570;-59
2022/05/30 09:54:59;;;;;;;10.20;2.20;;;;;;;;;;5022517;28;20063;-55
2022/05/30 09:57:42;;;;;;;4.65;1.90;;;;;;;;;;5023246;28;20093;-55
2022/05/30 10:00:36;;;;;;;3.72;1.98;;;;;;;;;;5020194;28;20053;-55
2022/05/30 10:03:11;;;;;;;8.38;2.05;;;;;;;;;;5023497;28;20046;-55
2022/05/30 10:05:39;;;;;;;6.07;2.22;;;;;;;;;;5022384;28;20072;-56
2022/05/30 10:08:05;;;;;;;;;;;;;;;;;;5022525;28;20800;-57
2022/05/30 10:10:40;;;;;;;7.80;2.22;;;;;;;;;;5020917;28;20411;-54
2022/05/30 10:13:07;;;;;;;4.57;2.25;;;;;;;;;;5020446;28;20488;-52
2022/05/30 10:15:39;;;;;;;8.15;2.20;;;;;;;;;;5023124;28;20073;-52
2022/05/30 10:18:13;;;;;;;6.55;2.20;;;;;;;;;;5021687;28;20428;-48
2022/05/30 10:20:45;;;;;;;11.50;2.03;;;;;;;;;;5025135;28;20512;-52
2022/05/30 10:29:33;;;;;;;9.13;2.10;;;;;;;;;;4985165;28;20089;-56
2022/05/30 10:32:21;;;;;;;4.85;1.92;;;;;;;;;;5020536;28;20497;-50
2022/05/30 10:34:58;;;;;;;6.15;2.17;;;;;;;;;;5004709;28;20521;-51
2022/05/30 10:37:34;;;;;;;6.40;1.83;;;;;;;;;;5020313;28;20425;-53
2022/05/30 10:40:10;;;;;;;11.90;2.70;;;;;;;;;;5020450;28;20569;-50
2022/05/30 10:43:05;;;;;;;7.20;2.53;;;;;;;;;;5019617;28;20057;-51
2022/05/30 10:45:41;;;;;;;10.13;2.70;;;;;;;;;;4998814;28;20046;-53
2022/05/30 10:48:24;;;;;;;8.57;3.17;;;;;;;;;;5001225;28;20050;-57
2022/05/30 10:50:54;;;;;;;10.85;3.22;;;;;;;;;;4999817;28;20402;-51
2022/05/30 10:53:27;;;;;;;11.18;3.13;;;;;;;;;;5005118;28;20092;-53
2022/05/30 10:55:54;;;;;;;11.23;3.28;;;;;;;;;;5003137;28;20117;-49
2022/05/30 10:58:25;;;;;;;9.93;2.78;;;;;;;;;;5007997;28;20152;-51
2022/05/30 11:01:02;;;;;;;7.07;2.70;;;;;;;;;;5001672;28;20057;-52
2022/05/30 11:03:35;;;;;;;12.18;3.17;;;;;;;;;;5000282;28;20058;-49
2022/05/30 11:06:26;;;;;;;9.57;2.90;;;;;;;;;;5003816;28;20057;-52
2022/05/30 11:09:02;;;;;;;10.00;2.88;;;;;;;;;;5003971;28;20054;-48
2022/05/30 11:11:48;;;;;;;11.02;2.80;;;;;;;;;;5005553;28;20054;-57
2022/05/30 11:14:31;;;;;;;11.50;3.05;;;;;;;;;;5002769;28;20125;-57
2022/05/30 11:17:19;;;;;;;11.40;3.03;;;;;;;;;;5003624;28;20050;-58
2022/05/30 11:19:55;;;;;;;6.97;3.13;;;;;;;;;;5008026;28;20100;-58
2022/05/30 11:22:39;;;;;;;8.40;2.53;;;;;;;;;;5005510;28;20073;-57
2022/05/30 11:25:07;;;;;;;9.15;2.40;;;;;;;;;;5004553;28;20096;-58
2022/05/30 11:27:55;;;;;;;8.45;3.08;;;;;;;;;;5005689;28;20104;-50
2022/05/30 11:30:27;;;;;;;10.93;2.72;;;;;;;;;;5006735;28;20108;-53
2022/05/30 11:33:01;;;;;;;;;;;;;;;;;;5005785;28;20420;-55
2022/05/30 11:35:35;;;;;;;6.80;2.50;;;;;;;;;;5007036;28;19995;-52
2022/05/30 11:38:08;;;;;;;12.60;3.35;;;;;;;;;;5001774;28;20569;-58
2022/05/30 11:40:53;;;;;;;9.18;2.95;;;;;;;;;;5001052;28;20576;-58
2022/05/30 11:43:41;;;;;;;9.00;3.00;;;;;;;;;;5012690;28;20088;-62
2022/05/30 11:46:14;;;;;;;;;;;;;;;;;;5024572;28;20538;-50
2022/05/30 11:48:55;;;;;;;10.35;3.03;;;;;;;;;;5026249;28;20400;-54
2022/05/30 11:51:40;;;;;;;13.82;3.47;;;;;;;;;;5023863;28;20624;-53
2022/05/30 11:54:13;;;;;;;7.47;3.08;;;;;;;;;;5024424;28;20052;-49
2022/05/30 11:56:55;;;;;;;13.32;3.40;;;;;;;;;;5023478;28;20050;-55
2022/05/30 11:59:42;;;;;;;7.80;3.40;;;;;;;;;;5022467;28;20054;-54
2022/05/30 12:02:12;;;;;;;8.80;3.30;;;;;;;;;;5024802;28;20053;-54
2022/05/30 12:04:55;;;;;;;10.27;3.10;;;;;;;;;;5024230;28;20104;-61
2022/05/30 12:07:48;;;;;;;13.90;3.67;;;;;;;;;;5022109;28;20057;-60
2022/05/30 12:10:42;;;;;;;8.55;3.63;;;;;;;;;;5024598;28;20080;-60
2022/05/30 12:13:31;;;;;;;9.07;2.97;;;;;;;;;;5020765;28;20093;-59
2022/05/30 12:16:07;;;;;;;7.28;2.70;;;;;;;;;;5021658;28;20464;-59
2022/05/30 12:24:30;;;;;;;5.93;2.97;;;;;;;;;;5026237;28;20081;-55
2022/05/30 12:27:23;;;;;;;10.30;3.00;;;;;;;;;;5022356;28;20090;-56
2022/05/30 12:29:50;;;;;;;8.63;2.95;;;;;;;;;;5017338;28;20053;-56
2022/05/30 12:32:34;;;;;;;8.15;2.78;;;;;;;;;;5022492;28;20065;-57
2022/05/30 12:35:01;;;;;;;12.38;3.33;;;;;;;;;;5020801;28;20108;-58
2022/05/30 12:37:51;;;;;;;12.07;3.33;;;;;;;;;;5023522;28;20501;-55
2022/05/30 12:40:26;;;;;;;7.25;2.80;;;;;;;;;;5018804;28;20526;-54
2022/05/30 12:43:29;;;;;;;8.82;2.47;;;;;;;;;;5025269;28;20123;-56
2022/05/30 12:45:56;;;;;;;10.52;2.45;;;;;;;;;;5025612;28;20057;-52
2022/05/30 12:48:33;;;;;;;9.73;3.40;;;;;;;;;;5022091;28;20636;-54
2022/05/30 12:51:10;;;;;;;14.02;2.75;;;;;;;;;;5021033;28;20193;-55
2022/05/30 12:53:55;;;;;;;8.60;2.70;;;;;;;;;;5020030;28;20072;-56
2022/05/30 12:56:37;;;;;;;9.30;2.80;;;;;;;;;;5021035;28;20394;-54
2022/05/30 12:59:24;;;;;;;8.82;2.90;;;;;;;;;;5025474;28;20058;-53
2022/05/30 13:01:53;;;;;;;10.40;2.67;;;;;;;;;;5022809;28;20046;-56
2022/05/30 13:04:34;;;;;;;6.35;2.85;;;;;;;;;;5024759;28;20497;-60
2022/05/30 13:07:01;;;;;;;6.82;2.72;;;;;;;;;;5024485;28;20054;-61
2022/05/30 13:09:40;;;;;;;7.03;2.67;;;;;;;;;;5011757;28;20057;-60
2022/05/30 13:12:10;;;;;;;6.07;2.50;;;;;;;;;;5020819;28;20520;-60
2022/05/30 13:14:52;;;;;;;12.55;2.45;;;;;;;;;;5023457;28;20535;-61
2022/05/30 13:17:18;;;;;;;5.63;2.47;;;;;;;;;;5021500;28;20425;-60
2022/05/30 13:19:53;;;;;;;7.60;2.55;;;;;;;;;;5026977;28;20061;-55
2022/05/30 13:22:25;;;;;;;10.73;2.58;;;;;;;;;;5023315;28;20103;-53
2022/05/30 13:24:59;;;;;;;10.15;2.58;;;;;;;;;;5027105;28;20459;-60
2022/05/30 13:27:26;;;;;;;9.98;2.42;;;;;;;;;;5022978;28;20590;-60
2022/05/30 13:29:53;;;;;;;6.25;2.55;;;;;;;;;;5020260;28;20192;-61
2022/05/30 13:32:28;;;;;;;5.90;2.58;;;;;;;;;;5021060;28;20084;-60
2022/05/30 13:34:57;;;;;;;5.40;2.38;;;;;;;;;;5023945;28;20045;-60
2022/05/30 13:37:24;;;;;;;9.82;2.78;;;;;;;;;;5021799;28;20096;-61
2022/05/30 13:39:59;;;;;;;8.98;2.97;;;;;;;;;;5020014;28;20275;-53
2022/05/30 13:42:45;;;;;;;5.40;2.08;;;;;;;;;;5025870;28;20517;-49
2022/05/30 13:45:26;;;;;;;5.88;2.65;;;;;;;;;;5024419;28;20053;-52
2022/05/30 13:48:00;;;;;;;4.93;2.33;;;;;;;;;;5024863;28;20069;-53
2022/05/30 13:50:53;;;;;;;4.75;2.13;;;;;;;;;;5015543;28;20765;-52
2022/05/30 13:53:24;;;;;;;6.63;2.10;;;;;;;;;;5022124;28;20057;-54
2022/05/30 13:56:02;;;;;;;6.20;2.13;;;;;;;;;;5022988;28;20085;-52
2022/05/30 13:58:30;;;;;;;6.20;2.28;;;;;;;;;;5021450;28;20073;-60
2022/05/30 14:01:04;;;;;;;5.55;2.00;;;;;;;;;;5023499;28;20133;-60
2022/05/30 14:03:40;;;;;;;3.78;1.80;;;;;;;;;;5022057;28;20053;-59
2022/05/30 14:06:20;;;;;;;5.43;2.10;;;;;;;;;;5019558;28;20129;-60
2022/05/30 14:08:54;;;;;;;8.20;1.90;;;;;;;;;;5021332;28;20108;-59
2022/05/30 14:11:21;;;;;;;6.97;2.37;;;;;;;;;;5019612;28;20054;-59
2022/05/30 14:13:47;;;;;;;4.38;2.03;;;;;;;;;;5022612;28;20085;-59
2022/05/30 14:16:39;;;;;;;2.42;1.88;;;;;;;;;;5019238;28;20107;-57
2022/05/30 14:19:09;;;;;;;5.60;1.92;;;;;;;;;;5025974;28;20069;-53
2022/05/30 14:21:50;;;;;;;4.47;2.17;;;;;;;;;;5022843;28;20492;-50
2022/05/30 14:24:22;;;;;;;6.22;1.92;;;;;;;;;;5019187;28;20057;-51
2022/05/30 14:26:56;;;;;;;6.35;2.00;;;;;;;;;;5020756;28;20100;-54
2022/05/30 14:29:30;;;;;;;11.20;1.88;;;;;;;;;;5023866;28;20053;-54
2022/05/30 14:32:13;;;;;;;5.55;1.70;;;;;;;;;;5025818;28;20231;-48
2022/05/30 14:34:40;;;;;;;3.92;1.83;;;;;;;;;;5019632;28;20143;-47
2022/05/30 14:37:27;;;;;;;6.03;1.98;;;;;;;;;;5023552;28;20064;-57
2022/05/30 14:39:55;;;;;;;5.05;1.80;;;;;;;;;;5021980;28;20654;-59
2022/05/30 14:42:42;;;;;;;4.28;1.95;;;;;;;;;;5023904;28;20100;-59
2022/05/30 14:45:17;;;;;;;5.03;2.05;;;;;;;;;;5026243;28;20089;-59
2022/05/30 14:47:53;;;;;;;3.95;1.67;;;;;;;;;;5025189;28;20069;-59
2022/05/30 14:50:26;;;;;;;3.50;2.00;;;;;;;;;;5026879;28;20115;-59
2022/05/30 14:52:59;;;;;;;3.88;1.90;;;;;;;;;;5023183;28;20081;-59
2022/05/30 14:55:32;;;;;;;3.28;2.10;;;;;;;;;;5024138;28;20108;-58
2022/05/30 14:58:06;;;;;;;3.42;1.92;;;;;;;;;;5023429;28;20144;-58
2022/05/30 15:00:55;;;;;;;3.97;1.92;;;;;;;;;;5022130;28;20061;-58
2022/05/30 15:06:15;;;;;;;6.82;2.08;;;;;;;;;;5021728;28;20072;-57
2022/05/30 15:08:41;;;;;;;3.83;1.73;;;;;;;;;;5024206;28;20053;-58
2022/05/30 15:11:17;;;;;;;9.50;2.42;;;;;;;;;;5022890;28;20088;-57
2022/05/30 15:13:53;;;;;;;6.55;2.38;;;;;;;;;;5024488;28;20096;-58
2022/05/30 15:16:22;;;;;;;10.85;2.15;;;;;;;;;;5022986;28;20096;-59
2022/05/30 15:18:49;;;;;;;8.63;2.30;;;;;;;;;;5024546;28;20057;-55
2022/05/30 15:21:27;;;;;;;8.90;2.70;;;;;;;;;;5019398;28;20512;-53
2022/05/30 15:23:54;;;;;;;8.77;2.35;;;;;;;;;;5024477;28;20135;-55
2022/05/30 15:26:22;;;;;;;6.87;2.27;;;;;;;;;;5022710;28;20967;-55
2022/05/30 15:28:56;;;;;;;8.07;2.03;;;;;;;;;;5020885;28;20288;-53
2022/05/30 15:31:27;;;;;;;6.40;2.30;;;;;;;;;;5022103;28;20084;-53
2022/05/30 15:33:54;;;;;;;3.28;1.95;;;;;;;;;;5024311;28;20053;-53
2022/05/30 15:36:28;;;;;;;9.70;2.58;;;;;;;;;;5027051;28;20092;-51
2022/05/30 15:39:08;;;;;;;9.35;2.80;;;;;;;;;;5024020;28;20057;-54
2022/05/30 15:41:43;;;;;;;8.30;2.28;;;;;;;;;;5023540;28;20116;-55
2022/05/30 15:44:24;;;;;;;12.35;2.72;;;;;;;;;;5022936;28;20111;-52